Terminal Aerodrome Forecast
Issued by NWS Atlanta, GA

Home | Current Version | Previous Version | Text Only | Print | Product List | Glossary On
Versions: 1 2 3 4 5 6 7 8 9 10 11 12 13 14 15 16 17 18 19 20 21 22 23 24 25 26 27 28 29 30 31 32 33 34 35 36 37 38
000
FTUS42 KFFC 291555 AAB
TAFAHN
TAF AMD
KAHN 291555Z 2916/3012 16006KT P6SM BKN018 OVC030
     FM291800 14007KT P6SM VCSH BKN025 OVC040
      TEMPO 2922/3002 5SM TSRA BKN015CB
     FM300200 12004KT 4SM -RA BR BKN007=

USA.gov is the U.S. government's official web portal to all federal, state and local government web resources and services.